Anchorage, AK

1:45 PM AKDT on September 22, 2014 (GMT -0800)
Merrill | Change Station
CLOSE
Current Station
Airport
Location: Anchorage Merrill,
Elevation: 135 ft
Nearby Weather Stations

Elev 135 ft 61.22 °N, 149.85 °W | Updated 52 minutes ago

Clear
Clear
47 °F
Feels Like 47 °F
N
4
Wind Variable Wind from WSW

Today
High -- | Low -- °F
--% Chance of Precip.
Yesterday
High -- | Low -- °F
Precip. -- in
7:43 AM 7:58 PM
Waning Crescent, 2% visible
Pressure 29.65 in
Visibility 10.0 miles
Clouds Clear
Dew Point 28 °F
Humidity 48%
Rainfall 0.00 in
Snow Depth 4 in , 7 in , 1 in
UV 3 out of 12
Pollen Not available.
Air Quality Not available.
Flu Activity Not available.
METAR PAMR 222053Z 25003KT 10SM CLR 08/M02 A2965 RMK AO2 SLP040 T00831022 51022

More Conditions Fewer Conditions

Pressure 29.65 in
Visibility 10.0 miles
Clouds Clear
Dew Point 28 °F
Humidity 48%
Rainfall 0.00 in
Snow Depth 4 in , 7 in , 1 in
UV 3 out of 12
Pollen Not available.
Air Quality Not available.
Flu Activity Not available.
METAR PAMR 222053Z 25003KT 10SM CLR 08/M02 A2965 RMK AO2 SLP040 T00831022 51022

More Conditions Fewer Conditions

10-Day Weather Forecast

Almanac

Astronomy

Sep. 22, 2014 Rise Set
Actual Time 7:43 AM AKDT 7:58 PM AKDT
Civil Twilight 7:00 AM AKDT 8:41 PM AKDT
Nautical Twilight 6:08 AM AKDT 9:33 PM AKDT
Astronomical Twilight 5:10 AM AKDT 10:31 PM AKDT
Moon 6:07 AM AKDT 7:18 PM AKDT
Length of Visible Light 13h 41m
Length of Day
12h 14m
Tomorrow will be 5m 40s shorter.
Waning Crescent, 2% of the Moon is Illuminated
Today
Waning Crescent
Sep 24
New
Oct 1
First Quarter
Oct 8
Full
Oct 15
Last Quarter

Today's Extremes

State Highs State Lows

Community

WunderPhotos

Upload Photos

1,755,537 photos uploaded!

WunderBlogs® & News

Nearby

Snow Depth

Station Depth Elevation
Atigun Pass 4 in 4800 ft
Moraine 7 in 2100 ft
Eagle Summit 1 in 3650 ft
Mcneil Canyon 1 in 1320 ft
Susitna Valley High 2 in 375 ft

Earthquake Activity

City Distance Mag. Time & Date
No recent earthquake activity has been reported nearby.
Minimum magnitude displayed is 2.5.

Coastal Water Temperatures

Place Temperature
No Stations Reporting

Nearby Weather Stations